Time;durP1;ratioP1;P1;durP2;ratioP2;P2;SDS_P1;SDS_P2;PMS_P1;PMS_P2;Temp;Humidity;BMP_temperature;BMP_pressure;BME280_temperature;BME280_humidity;BME280_pressure;Samples;Min_cycle;Max_cycle;Signal;HPM_P1;HPM_P2
2022/09/08 00:01:44;;;;;;;41.58;34.35;;;;;;;;;;6246003;22;20395;-87
2022/09/08 00:04:10;;;;;;;39.75;34.95;;;;;;;;;;6270157;22;20030;-82
2022/09/08 00:06:36;;;;;;;40.55;36.30;;;;;;;;;;6248944;22;20023;-87
2022/09/08 00:09:03;;;;;;;46.08;38.03;;;;;;;;;;6298484;22;20026;-84
2022/09/08 00:11:36;;;;;;;44.92;39.40;;;;;;;;;;6271715;22;20031;-85
2022/09/08 00:14:05;;;;;;;46.00;41.20;;;;;;;;;;6245992;22;20019;-86
2022/09/08 00:16:31;;;;;;;47.28;42.22;;;;;;;;;;6268218;22;20023;-86
2022/09/08 00:19:07;;;;;;;43.00;38.47;;;;;;;;;;6273796;22;20108;-85
2022/09/08 00:21:33;;;;;;;39.97;35.58;;;;;;;;;;6246009;22;20023;-87
2022/09/08 00:23:59;;;;;;;40.40;36.17;;;;;;;;;;6249256;22;20297;-86
2022/09/08 00:26:44;;;;;;;42.15;37.80;;;;;;;;;;6275479;22;20023;-85
2022/09/08 00:29:10;;;;;;;47.22;41.20;;;;;;;;;;6252169;22;20077;-87
2022/09/08 00:31:40;;;;;;;48.58;42.33;;;;;;;;;;6249961;22;20023;-84
2022/09/08 00:34:06;;;;;;;46.80;41.78;;;;;;;;;;6250893;22;20049;-88
2022/09/08 00:36:33;;;;;;;44.70;40.03;;;;;;;;;;6250963;22;20031;-86
2022/09/08 00:39:00;;;;;;;45.92;40.78;;;;;;;;;;6288874;22;20027;-88
2022/09/08 00:41:27;;;;;;;47.33;42.40;;;;;;;;;;6243678;22;20317;-86
2022/09/08 00:43:58;;;;;;;46.33;41.33;;;;;;;;;;6273470;22;20023;-86
2022/09/08 00:46:37;;;;;;;47.72;42.08;;;;;;;;;;6273414;22;20051;-84
2022/09/08 00:49:09;;;;;;;52.70;42.95;;;;;;;;;;6273831;22;20362;-85
2022/09/08 00:51:39;;;;;;;49.22;42.95;;;;;;;;;;6273530;22;20019;-84
2022/09/08 00:54:05;;;;;;;46.30;41.40;;;;;;;;;;6272878;22;20031;-87
2022/09/08 00:56:32;;;;;;;47.65;42.55;;;;;;;;;;6273837;22;20031;-86
2022/09/08 00:59:00;;;;;;;49.60;42.55;;;;;;;;;;6245889;22;20360;-85
2022/09/08 01:01:26;;;;;;;44.42;39.75;;;;;;;;;;6247225;22;20023;-87
2022/09/08 01:03:53;;;;;;;49.10;43.00;;;;;;;;;;6271206;22;20031;-85
2022/09/08 01:15:11;;;;;;;52.13;44.72;;;;;;;;;;6266441;22;20022;-83
2022/09/08 01:17:38;;;;;;;54.25;47.80;;;;;;;;;;6266403;22;20653;-85
2022/09/08 01:20:08;;;;;;;57.83;48.63;;;;;;;;;;6266735;22;20877;-84
2022/09/08 01:23:06;;;;;;;54.20;47.67;;;;;;;;;;6242164;22;20050;-83
2022/09/08 01:26:02;;;;;;;51.58;45.95;;;;;;;;;;6266685;22;20026;-86
2022/09/08 01:31:30;;;;;;;54.85;48.45;;;;;;;;;;6271328;22;20069;-82
2022/09/08 01:33:56;;;;;;;58.03;49.08;;;;;;;;;;6249007;22;20019;-83
2022/09/08 01:36:22;;;;;;;64.88;51.42;;;;;;;;;;6272213;22;20058;-84
2022/09/08 01:38:48;;;;;;;57.70;50.65;;;;;;;;;;6271013;22;20721;-84
2022/09/08 01:41:14;;;;;;;57.25;50.38;;;;;;;;;;6269981;22;20024;-87
2022/09/08 01:43:41;;;;;;;62.35;52.50;;;;;;;;;;6245547;22;20540;-84
2022/09/08 01:46:07;;;;;;;58.67;50.47;;;;;;;;;;6270997;22;20023;-83
2022/09/08 01:48:33;;;;;;;68.30;56.08;;;;;;;;;;6268480;22;20290;-84
2022/09/08 01:51:00;;;;;;;71.78;56.15;;;;;;;;;;6269726;22;20031;-83
2022/09/08 01:53:26;;;;;;;78.80;62.00;;;;;;;;;;6268582;22;20024;-84
2022/09/08 01:55:52;;;;;;;79.38;62.95;;;;;;;;;;6269113;22;20399;-83
2022/09/08 01:58:18;;;;;;;77.97;61.60;;;;;;;;;;6241683;22;20030;-85
2022/09/08 02:00:45;;;;;;;73.93;58.40;;;;;;;;;;6246313;22;20035;-86
2022/09/08 02:03:11;;;;;;;74.43;57.50;;;;;;;;;;6269148;22;20020;-83
2022/09/08 02:05:40;;;;;;;64.68;53.78;;;;;;;;;;6271720;22;20023;-86
2022/09/08 02:08:07;;;;;;;65.75;54.42;;;;;;;;;;6245870;22;20024;-83
2022/09/08 02:10:33;;;;;;;66.18;55.35;;;;;;;;;;6244780;22;20111;-85
2022/09/08 02:12:59;;;;;;;63.53;53.25;;;;;;;;;;6272239;22;20046;-83
2022/09/08 02:15:25;;;;;;;66.05;54.70;;;;;;;;;;6267752;22;20408;-83
2022/09/08 02:17:52;;;;;;;65.47;54.90;;;;;;;;;;6271529;22;20016;-83
2022/09/08 02:20:18;;;;;;;68.40;57.38;;;;;;;;;;6267309;22;20042;-84
2022/09/08 02:22:44;;;;;;;70.60;58.00;;;;;;;;;;6244019;22;20132;-84
2022/09/08 02:25:11;;;;;;;75.45;60.03;;;;;;;;;;6240598;22;20020;-83
2022/09/08 02:27:37;;;;;;;70.20;59.13;;;;;;;;;;6271795;22;20456;-86
2022/09/08 02:30:03;;;;;;;76.78;63.08;;;;;;;;;;6269727;22;20016;-84
2022/09/08 02:32:29;;;;;;;79.43;62.75;;;;;;;;;;6244652;22;20023;-83
2022/09/08 02:34:55;;;;;;;72.95;62.88;;;;;;;;;;6273657;22;20475;-81
2022/09/08 02:37:21;;;;;;;76.80;62.80;;;;;;;;;;6270777;22;20348;-82
2022/09/08 02:39:47;;;;;;;73.45;61.30;;;;;;;;;;6270682;22;20460;-82
2022/09/08 02:42:13;;;;;;;68.90;59.67;;;;;;;;;;6270194;22;20028;-82
2022/09/08 02:44:40;;;;;;;70.10;58.45;;;;;;;;;;6245603;22;20449;-83
2022/09/08 02:47:06;;;;;;;67.95;58.40;;;;;;;;;;6267686;22;20459;-85
2022/09/08 02:49:32;;;;;;;74.43;61.55;;;;;;;;;;6244286;22;20472;-83
2022/09/08 02:54:29;;;;;;;71.90;61.30;;;;;;;;;;6304123;22;20027;-85
2022/09/08 02:57:15;;;;;;;74.65;63.22;;;;;;;;;;6251053;22;20020;-86
2022/09/08 02:59:41;;;;;;;71.85;60.88;;;;;;;;;;6274766;22;20027;-85
2022/09/08 03:02:07;;;;;;;76.82;61.67;;;;;;;;;;6225080;22;20038;-85
2022/09/08 03:04:33;;;;;;;74.32;63.03;;;;;;;;;;6249427;22;20023;-85
2022/09/08 03:06:59;;;;;;;71.47;60.88;;;;;;;;;;6250890;22;20015;-83
2022/09/08 03:09:26;;;;;;;76.05;63.45;;;;;;;;;;6275344;22;20019;-86
2022/09/08 03:11:52;;;;;;;76.68;63.35;;;;;;;;;;6278165;22;20106;-86
2022/09/08 03:14:18;;;;;;;75.97;63.78;;;;;;;;;;6276095;22;20054;-86
2022/09/08 03:16:46;;;;;;;81.65;65.70;;;;;;;;;;6250187;22;20485;-81
2022/09/08 03:19:12;;;;;;;82.07;65.47;;;;;;;;;;6276628;22;20505;-81
2022/09/08 03:21:38;;;;;;;82.53;66.45;;;;;;;;;;6274894;22;20019;-83
2022/09/08 03:24:04;;;;;;;84.50;69.07;;;;;;;;;;6276199;22;20023;-86
2022/09/08 03:26:30;;;;;;;82.85;68.60;;;;;;;;;;6302954;22;20033;-83
2022/09/08 03:28:56;;;;;;;74.15;63.15;;;;;;;;;;6250113;22;20394;-83
2022/09/08 03:31:22;;;;;;;73.00;61.95;;;;;;;;;;6249088;22;20023;-83
2022/09/08 03:33:49;;;;;;;74.88;64.00;;;;;;;;;;6276468;22;20027;-84
2022/09/08 03:36:15;;;;;;;73.75;62.63;;;;;;;;;;6302737;22;20325;-83
2022/09/08 03:38:42;;;;;;;73.80;62.45;;;;;;;;;;6249656;22;20348;-82
2022/09/08 03:41:08;;;;;;;69.70;60.40;;;;;;;;;;6304401;22;20023;-84
2022/09/08 03:43:34;;;;;;;71.57;60.78;;;;;;;;;;6304116;22;20015;-82
2022/09/08 03:46:01;;;;;;;75.93;63.35;;;;;;;;;;6226452;22;20026;-84
2022/09/08 03:48:34;;;;;;;70.35;58.35;;;;;;;;;;6302448;22;20019;-83
2022/09/08 03:51:17;;;;;;;67.57;58.60;;;;;;;;;;6250701;22;20062;-85
2022/09/08 03:53:44;;;;;;;71.13;57.90;;;;;;;;;;6249191;22;20046;-83
2022/09/08 03:56:11;;;;;;;69.05;58.90;;;;;;;;;;6250338;22;20023;-84
2022/09/08 03:58:37;;;;;;;73.20;61.47;;;;;;;;;;6302734;22;20464;-85
2022/09/08 04:01:16;;;;;;;66.13;57.60;;;;;;;;;;6276668;22;20023;-83
2022/09/08 04:13:02;;;;;;;75.40;62.72;;;;;;;;;;6303546;22;20042;-84
2022/09/08 04:18:50;;;;;;;74.40;61.75;;;;;;;;;;6275195;22;20395;-85
2022/09/08 04:21:19;;;;;;;73.38;60.97;;;;;;;;;;6301632;22;20094;-83
2022/09/08 04:23:45;;;;;;;77.85;63.70;;;;;;;;;;6301525;22;20034;-85
2022/09/08 04:30:19;;;;;;;74.97;56.75;;;;;;;;;;6302913;22;20034;-82
2022/09/08 04:36:06;;;;;;;75.97;63.10;;;;;;;;;;6276171;22;20030;-84
2022/09/08 04:39:09;;;;;;;79.90;65.50;;;;;;;;;;6300816;22;20023;-84
2022/09/08 04:41:36;;;;;;;87.70;67.25;;;;;;;;;;6275076;22;20030;-86
2022/09/08 04:44:03;;;;;;;81.43;65.32;;;;;;;;;;6250658;22;20554;-84
2022/09/08 04:46:38;;;;;;;80.93;63.38;;;;;;;;;;6251508;22;20086;-84
2022/09/08 04:49:17;;;;;;;79.63;66.05;;;;;;;;;;6281453;22;20023;-85
2022/09/08 04:51:43;;;;;;;75.45;63.20;;;;;;;;;;6306747;22;20027;-86
2022/09/08 04:54:09;;;;;;;82.45;63.85;;;;;;;;;;6279300;22;20050;-87
2022/09/08 04:56:48;;;;;;;80.28;66.22;;;;;;;;;;6250952;22;20102;-86
2022/09/08 04:59:36;;;;;;;77.85;64.28;;;;;;;;;;6304390;22;20106;-85
2022/09/08 05:02:02;;;;;;;74.15;63.58;;;;;;;;;;6251125;22;20027;-86
2022/09/08 05:07:49;;;;;;;81.78;66.43;;;;;;;;;;6303205;22;20027;-86
2022/09/08 05:13:29;;;;;;;77.70;64.45;;;;;;;;;;6149126;23;20450;-86
2022/09/08 05:16:06;;;;;;;72.35;63.40;;;;;;;;;;6305758;22;20027;-85
2022/09/08 05:18:48;;;;;;;79.55;64.82;;;;;;;;;;6277040;22;20023;-86
2022/09/08 05:27:08;;;;;;;74.70;63.28;;;;;;;;;;6303482;22;20398;-82
2022/09/08 05:30:00;;;;;;;75.25;62.92;;;;;;;;;;6241874;23;20349;-83
2022/09/08 05:33:01;;;;;;;73.20;59.95;;;;;;;;;;6215248;23;20043;-85
2022/09/08 05:35:27;;;;;;;72.78;58.97;;;;;;;;;;6239823;22;20032;-84
2022/09/08 05:37:53;;;;;;;67.93;60.42;;;;;;;;;;6242153;22;20342;-84
2022/09/08 05:40:19;;;;;;;66.78;58.75;;;;;;;;;;6239230;22;20086;-84
2022/09/08 05:42:54;;;;;;;64.50;57.40;;;;;;;;;;6243599;23;20023;-82
2022/09/08 05:45:24;;;;;;;67.75;58.50;;;;;;;;;;6215699;23;20063;-83
2022/09/08 05:47:50;;;;;;;63.13;55.72;;;;;;;;;;6243063;23;20047;-85
2022/09/08 05:50:48;;;;;;;62.72;55.90;;;;;;;;;;6240902;23;20023;-84
2022/09/08 05:55:54;;;;;;;77.25;56.47;;;;;;;;;;6279593;22;20031;-82
2022/09/08 05:58:21;;;;;;;64.05;54.45;;;;;;;;;;6274155;22;20028;-82
2022/09/08 06:00:55;;;;;;;66.65;55.75;;;;;;;;;;6248567;22;20032;-83
2022/09/08 06:03:23;;;;;;;64.07;55.47;;;;;;;;;;6221793;22;20019;-85
2022/09/08 06:05:58;;;;;;;64.00;57.13;;;;;;;;;;6248688;22;20047;-82
2022/09/08 06:08:24;;;;;;;64.82;56.65;;;;;;;;;;6273498;22;20019;-84
2022/09/08 06:13:34;;;;;;;75.38;62.33;;;;;;;;;;6308966;22;20033;-82
2022/09/08 06:16:31;;;;;;;71.97;59.97;;;;;;;;;;6309485;22;20042;-85
2022/09/08 06:22:17;;;;;;;77.50;62.53;;;;;;;;;;6290008;22;20047;-88
2022/09/08 06:36:16;;;;;;;73.47;62.88;;;;;;;;;;6316132;22;20023;-94
2022/09/08 06:38:55;;;;;;;;;;;18.30;99.90;;;;;;6292173;22;20022;-89
2022/09/08 06:41:41;;;;;;;75.82;60.03;;;;;;;;;;6292079;22;19925;-91
2022/09/08 06:57:52;;;;;;;64.20;54.30;;;;;;;;;;6285898;22;20061;-88
2022/09/08 07:04:01;;;;;;;67.78;55.85;;;;;;;;;;6312683;22;20085;-90
2022/09/08 07:09:59;;;;;;;64.03;53.55;;;;;;;;;;6260335;22;20023;-86
2022/09/08 07:16:20;;;;;;;61.55;53.00;;;;;;;;;;6282355;22;20843;-93
2022/09/08 07:19:11;;;;;;;62.88;54.45;;;;;;;;;;6254537;22;20034;-90
2022/09/08 07:22:03;;;;;;;64.00;53.50;;;;;;;;;;6252574;22;20034;-91
2022/09/08 07:27:40;;;;;;;64.00;56.38;;;;;;;;;;6253567;22;20055;-92
2022/09/08 07:37:21;;;;;;;75.45;67.45;;;;;;;;;;6190822;23;20135;-87
2022/09/08 07:43:16;;;;;;;81.15;69.50;;;;;;;;;;6321693;22;20318;-83
2022/09/08 07:56:17;;;;;;;89.75;73.25;;;;;;;;;;6316977;22;20339;-79
2022/09/08 07:59:17;;;;;;;92.13;71.57;;;;;;;;;;6286557;22;20027;-83
2022/09/08 08:02:02;;;;;;;89.03;73.15;;;;;;;;;;6264986;22;20436;-83
2022/09/08 08:07:04;;;;;;;88.72;71.72;;;;;;;;;;6287248;22;20026;-82
2022/09/08 08:09:35;;;;;;;88.43;71.03;;;;;;;;;;6224801;22;20352;-84
2022/09/08 08:15:42;;;;;;;83.97;68.53;;;;;;;;;;6302436;22;20030;-83
2022/09/08 08:21:32;;;;;;;76.35;65.93;;;;;;;;;;6304564;22;20025;-86
2022/09/08 08:24:01;;;;;;;79.65;66.18;;;;;;;;;;6254492;22;20062;-83
2022/09/08 08:26:30;;;;;;;72.40;63.15;;;;;;;;;;6253637;22;20015;-84
2022/09/08 08:35:04;;;;;;;67.88;58.42;;;;;;;;;;6304700;22;20013;-86
2022/09/08 08:48:42;;;;;;;66.00;57.55;;;;;;;;;;6302290;22;20165;-85
2022/09/08 08:56:48;;;;;;;65.40;58.35;;;;;;;;;;6271619;22;20428;-85
2022/09/08 09:10:13;;;;;;;51.28;45.88;;;;;;;;;;6212824;23;20019;-85
2022/09/08 09:13:06;;;;;;;48.33;43.22;;;;;;;;;;6213519;23;20028;-85
2022/09/08 09:15:51;;;;;;;50.83;44.30;;;;;;;;;;6212831;23;20043;-86
2022/09/08 09:21:26;;;;;;;47.95;42.78;;;;;;;;;;6303625;22;20053;-86
2022/09/08 09:28:02;;;;;;;47.28;42.40;;;;;;;;;;6301667;22;20050;-86
2022/09/08 09:30:54;;;;;;;45.25;40.60;;;;;;;;;;6275981;22;20030;-85
2022/09/08 09:33:38;;;;;;;47.33;42.60;;;;;;;;;;6304603;22;20122;-84
2022/09/08 09:36:20;;;;;;;46.22;41.33;;;;;;;;;;6250530;22;20097;-84
2022/09/08 09:42:37;;;;;;;47.45;42.45;;;;;;;;;;6304343;22;20030;-85
2022/09/08 09:45:17;;;;;;;46.50;41.65;;;;;;;;;;6251000;22;20408;-84
2022/09/08 09:48:14;;;;;;;48.58;43.38;;;;;;;;;;6251261;22;20023;-84
2022/09/08 09:54:09;;;;;;;47.53;42.63;;;;;;;;;;6277330;22;20015;-84
2022/09/08 09:56:44;;;;;;;49.88;43.80;;;;;;;;;;6277647;22;20016;-84
2022/09/08 09:59:29;;;;;;;43.90;39.25;;;;;;;;;;6276191;22;20766;-83
2022/09/08 10:05:28;;;;;;;46.50;41.73;;;18.60;99.90;;;;;;6297807;22;20027;-84
2022/09/08 10:21:18;;;;;;;52.38;43.72;;;;;;;;;;6145998;23;20028;-83
2022/09/08 10:24:08;;;;;;;50.80;43.45;;;;;;;;;;6299695;22;20463;-82
2022/09/08 10:26:47;;;;;;;54.67;45.72;;;;;;;;;;6245322;22;20027;-83
2022/09/08 10:29:35;;;;;;;61.42;46.28;;;;;;;;;;6273801;22;20034;-80
2022/09/08 10:32:04;;;;;;;60.53;46.53;;;;;;;;;;6299282;22;20056;-82
2022/09/08 10:34:30;;;;;;;62.72;50.17;;;;;;;;;;6272817;22;20058;-82
2022/09/08 10:37:24;;;;;;;61.83;48.45;;;;;;;;;;6300084;22;20069;-83
2022/09/08 10:40:13;;;;;;;51.50;40.47;;;;;;;;;;6300565;22;20050;-83
2022/09/08 10:43:05;;;;;;;49.85;41.38;;;;;;;;;;6299337;22;20019;-81
2022/09/08 10:45:43;;;;;;;45.70;37.95;;;;;;;;;;6272996;22;20428;-82
2022/09/08 10:48:12;;;;;;;47.42;39.70;;;;;;;;;;6247437;22;20098;-82
2022/09/08 10:50:50;;;;;;;50.47;40.03;;;;;;;;;;6271199;22;20027;-83
2022/09/08 10:53:34;;;;;;;46.28;39.28;;;;;;;;;;6308295;22;20061;-83
2022/09/08 10:56:21;;;;;;;47.17;40.83;;;;;;;;;;6280979;22;20027;-84
2022/09/08 10:59:02;;;;;;;43.50;37.38;;;;;;;;;;6281505;22;20030;-84
2022/09/08 11:01:47;;;;;;;46.47;40.17;;;;;;;;;;6281025;22;20031;-84
2022/09/08 11:04:32;;;;;;;52.80;43.17;;;;;;;;;;6309833;22;20488;-83
2022/09/08 11:07:27;;;;;;;50.45;42.40;;;;;;;;;;6312864;22;20106;-85
2022/09/08 11:13:31;;;;;;;41.85;37.00;;;;;;;;;;6282958;22;20098;-84
2022/09/08 11:16:16;;;;;;;39.58;35.28;;;;;;;;;;6290064;22;20097;-85
2022/09/08 11:19:01;;;;;;;46.90;37.88;;;;;;;;;;6288254;22;20019;-85
2022/09/08 11:21:47;;;;;;;41.95;35.55;;;;;;;;;;6283040;22;20340;-84
2022/09/08 11:24:21;;;;;;;39.97;35.28;;;;;;;;;;6309827;22;20359;-85
2022/09/08 11:27:00;;;;;;;35.70;31.23;;;;;;;;;;6278920;22;20023;-84
2022/09/08 11:29:50;;;;;;;32.15;26.83;;;;;;;;;;6281406;22;20023;-84
2022/09/08 11:32:32;;;;;;;25.63;22.95;;;;;;;;;;6278727;22;20019;-83
2022/09/08 11:35:28;;;;;;;29.23;24.20;;;;;;;;;;6306991;22;20023;-83
2022/09/08 11:37:57;;;;;;;29.70;24.13;;;;;;;;;;6307094;22;20030;-83
2022/09/08 11:40:44;;;;;;;23.85;20.65;;;;;;;;;;6279365;22;20379;-84
2022/09/08 11:43:45;;;;;;;22.48;19.98;;;;;;;;;;6280765;22;20024;-82
2022/09/08 11:52:57;;;;;;;19.73;17.73;;;;;;;;;;6308828;22;20022;-84
2022/09/08 11:55:44;;;;;;;21.10;18.88;;;;;;;;;;6251455;22;20031;-84
2022/09/08 11:58:11;;;;;;;19.17;17.13;;;;;;;;;;6306194;22;20024;-83
2022/09/08 12:00:55;;;;;;;24.15;19.83;;;;;;;;;;6305959;22;20078;-82
2022/09/08 12:03:47;;;;;;;19.48;17.35;;;;;;;;;;6280197;22;20022;-83
2022/09/08 12:06:32;;;;;;;15.95;14.30;;;;;;;;;;6252085;22;20049;-83
2022/09/08 12:08:58;;;;;;;16.48;14.63;;;;;;;;;;6277104;22;20050;-83
2022/09/08 12:18:50;;;;;;;17.77;14.55;;;;;;;;;;6304259;22;20510;-82
2022/09/08 12:21:31;;;;;;;16.80;14.45;;;;;;;;;;6278230;22;20178;-84
2022/09/08 12:27:45;;;;;;;17.05;14.30;;;17.90;99.90;;;;;;6280011;22;20073;-82
2022/09/08 12:30:50;;;;;;;;;;;;;;;;;;;;;
2022/09/08 12:33:37;;;;;;;7.72;5.85;;;;;;;;;;6274124;22;20030;-74
2022/09/08 12:36:20;;;;;;;6.00;4.47;;;;;;;;;;6298417;22;20055;-76
2022/09/08 12:38:55;;;;;;;7.63;4.75;;;;;;;;;;6299825;22;20027;-75
2022/09/08 12:41:22;;;;;;;7.45;4.38;;;;;;;;;;6299877;22;20395;-75
2022/09/08 12:43:48;;;;;;;10.00;5.63;;;;;;;;;;6301305;22;20027;-75
2022/09/08 12:46:29;;;;;;;7.10;5.97;;;;;;;;;;6300588;22;20530;-75
2022/09/08 12:49:11;;;;;;;4.80;4.30;;;;;;;;;;6272847;22;20027;-76
2022/09/08 12:51:37;;;;;;;8.38;6.03;;;;;;;;;;6300877;22;20042;-75
2022/09/08 12:54:13;;;;;;;7.93;5.45;;;;;;;;;;6300133;22;20125;-75
2022/09/08 12:56:39;;;;;;;4.63;4.03;;;;;;;;;;6301513;22;20027;-75
2022/09/08 12:59:11;;;;;;;5.18;3.70;;;;;;;;;;6272838;22;20057;-75
2022/09/08 13:01:45;;;;;;;9.65;4.95;;;;;;;;;;6300553;22;20027;-74
2022/09/08 13:04:30;;;;;;;5.82;4.25;;;;;;;;;;6300316;22;20394;-75
2022/09/08 13:07:08;;;;;;;10.23;4.80;;;;;;;;;;6299589;22;20027;-75
2022/09/08 13:09:37;;;;;;;6.88;4.75;;;;;;;;;;6301377;22;20464;-75
2022/09/08 13:12:03;;;;;;;5.00;4.40;;;;;;;;;;6300032;22;20122;-76
2022/09/08 13:14:41;;;;;;;6.53;4.68;;;;;;;;;;6272876;22;20023;-75
2022/09/08 13:17:10;;;;;;;5.50;4.20;;;;;;;;;;6300319;22;20027;-74
2022/09/08 13:19:47;;;;;;;6.30;4.78;;;;;;;;;;6300128;22;20034;-75
2022/09/08 13:22:44;;;;;;;5.68;4.85;;;;;;;;;;6300643;22;20027;-74
2022/09/08 13:25:16;;;;;;;9.45;4.95;;;;;;;;;;6165875;22;20319;-76
2022/09/08 13:27:46;;;;;;;6.25;4.60;;;;;;;;;;6300142;22;20019;-75
2022/09/08 13:30:14;;;;;;;5.22;4.75;;;;;;;;;;6272788;22;20094;-75
2022/09/08 13:33:00;;;;;;;6.35;4.15;;;;;;;;;;6272508;22;20356;-74
2022/09/08 13:35:29;;;;;;;14.25;5.55;;;;;;;;;;6300984;22;20019;-75
2022/09/08 13:37:55;;;;;;;7.63;4.80;;;;;;;;;;6299567;22;20033;-75
2022/09/08 13:40:33;;;;;;;20.83;5.65;;;;;;;;;;6300182;22;20023;-74
2022/09/08 13:43:18;;;;;;;4.38;3.92;;;;;;;;;;6299985;22;20019;-74
2022/09/08 13:45:47;;;;;;;6.78;4.20;;;;;;;;;;6272152;22;20741;-75
2022/09/08 13:48:31;;;;;;;4.95;3.95;;;;;;;;;;6300607;22;20027;-75
2022/09/08 13:51:03;;;;;;;8.23;4.32;;;;;;;;;;6299294;22;20600;-75
2022/09/08 13:53:33;;;;;;;8.05;4.18;;;;;;;;;;6299922;22;20106;-74
2022/09/08 13:56:18;;;;;;;7.65;3.85;;;;;;;;;;6273216;22;20027;-75
2022/09/08 13:58:45;;;;;;;5.00;3.25;;;;;;;;;;6299709;22;20356;-74
2022/09/08 14:01:27;;;;;;;6.55;3.72;;;;;;;;;;6300345;22;20026;-75
2022/09/08 14:03:54;;;;;;;18.23;3.97;;;;;;;;;;6299497;22;20381;-75
2022/09/08 14:06:21;;;;;;;6.38;3.42;;;;;;;;;;6300237;22;20038;-75
2022/09/08 14:08:51;;;;;;;7.78;3.47;;;;;;;;;;6272406;22;20019;-74
2022/09/08 14:11:29;;;;;;;7.20;3.50;;;;;;;;;;6299667;22;20015;-74
2022/09/08 14:14:14;;;;;;;5.75;3.42;;;;;;;;;;6272763;22;20031;-75
2022/09/08 14:16:41;;;;;;;4.15;2.92;;;;;;;;;;6272547;22;20030;-75
2022/09/08 14:19:08;;;;;;;4.63;3.00;;;;;;;;;;6272854;22;20110;-75
2022/09/08 14:21:48;;;;;;;3.20;2.88;;;;;;;;;;6300356;22;20490;-75
2022/09/08 14:24:25;;;;;;;5.07;3.25;;;;;;;;;;6276582;22;20027;-75
2022/09/08 14:26:57;;;;;;;3.35;2.97;;;;;;;;;;6307804;22;20063;-74
2022/09/08 14:29:26;;;;;;;5.60;3.13;;;;;;;;;;6306997;22;20432;-74
2022/09/08 14:31:52;;;;;;;7.05;3.45;;;;;;;;;;6304210;22;20045;-74
2022/09/08 14:34:30;;;;;;;6.90;3.88;;;;;;;;;;6299924;22;20460;-74
2022/09/08 14:37:01;;;;;;;5.35;3.90;;;;;;;;;;6299800;22;20296;-75
2022/09/08 14:39:35;;;;;;;5.63;4.20;;;;;;;;;;6299505;22;20027;-75
2022/09/08 14:42:20;;;;;;;7.32;3.50;;;;;;;;;;6271851;22;20348;-74
2022/09/08 14:44:58;;;;;;;7.32;3.88;;;;;;;;;;6300427;22;20027;-75
2022/09/08 14:47:30;;;;;;;6.22;4.05;;;;;;;;;;6271652;22;20030;-74
2022/09/08 14:49:56;;;;;;;4.50;4.10;;;;;;;;;;6299551;22;20039;-75
2022/09/08 14:52:41;;;;;;;6.00;4.15;;;;;;;;;;6299771;22;20095;-75
2022/09/08 14:55:21;;;;;;;4.45;3.90;;;;;;;;;;6271335;22;20016;-74
2022/09/08 14:57:49;;;;;;;9.55;4.50;;;;;;;;;;6300423;22;20023;-75
2022/09/08 15:00:15;;;;;;;7.03;5.10;;;;;;;;;;6298937;22;20221;-75
2022/09/08 15:02:53;;;;;;;6.53;4.65;;;;;;;;;;6299309;22;20015;-75
2022/09/08 15:05:22;;;;;;;7.85;5.00;;;;;;;;;;6299245;22;20023;-74
2022/09/08 15:07:53;;;;;;;6.85;5.32;;;;;;;;;;6271519;22;20076;-75
2022/09/08 15:10:33;;;;;;;8.30;5.95;;;;;;;;;;6247033;22;20027;-75
2022/09/08 15:13:02;;;;;;;10.40;6.53;;;;;;;;;;6271255;22;20015;-75
2022/09/08 15:15:34;;;;;;;7.40;5.95;;;;;;;;;;6299807;22;20112;-74
2022/09/08 15:18:02;;;;;;;9.18;6.32;;;;;;;;;;6272598;22;20081;-75
2022/09/08 15:20:28;;;;;;;9.82;6.43;;;;;;;;;;6245531;22;20061;-74
2022/09/08 15:22:57;;;;;;;10.02;7.03;;;;;;;;;;6299327;22;20015;-74
2022/09/08 15:25:25;;;;;;;9.57;7.63;;;;;;;;;;6298766;22;20027;-73
2022/09/08 15:27:51;;;;;;;11.43;8.60;;;;;;;;;;6299985;22;20027;-74
2022/09/08 15:30:22;;;;;;;9.85;7.70;;;;;;;;;;6298546;22;20153;-74
2022/09/08 15:33:04;;;;;;;10.82;8.23;;;;;;;;;;6298877;22;20528;-74
2022/09/08 15:35:37;;;;;;;8.77;7.90;;;;;;;;;;6298998;22;20034;-74
2022/09/08 15:38:22;;;;;;;10.23;8.00;;;;;;;;;;6298805;22;20581;-74
2022/09/08 15:41:07;;;;;;;9.23;8.32;;;;;;;;;;6299046;22;20019;-74
2022/09/08 15:43:41;;;;;;;12.80;9.05;;;;;;;;;;6298716;22;20025;-74
2022/09/08 15:46:15;;;;;;;17.50;8.90;;;;;;;;;;6298841;22;20016;-73
2022/09/08 15:48:56;;;;;;;10.45;8.75;;;;;;;;;;6298817;22;20026;-74
2022/09/08 15:51:24;;;;;;;12.57;8.93;;;;;;;;;;6298170;22;20324;-74
2022/09/08 15:54:05;;;;;;;10.07;8.70;;;;;;;;;;6299275;22;20066;-73
2022/09/08 15:56:51;;;;;;;14.40;9.73;;;;;;;;;;6271382;22;20023;-74
2022/09/08 15:59:24;;;;;;;11.52;9.73;;;;;;;;;;6298989;22;20027;-74
2022/09/08 16:01:56;;;;;;;13.35;9.32;;;;;;;;;;6299142;22;20404;-74
2022/09/08 16:04:40;;;;;;;13.68;9.27;;;;;;;;;;6297846;22;20041;-74
2022/09/08 16:07:12;;;;;;;11.55;9.52;;;;;;;;;;6298324;22;20027;-74
2022/09/08 16:09:58;;;;;;;11.95;10.13;;;;;;;;;;6299251;22;20023;-75
2022/09/08 16:12:26;;;;;;;12.73;10.82;;;;;;;;;;6298540;22;20019;-75
2022/09/08 16:15:15;;;;;;;15.98;11.90;;;;;;;;;;6271193;22;20745;-75
2022/09/08 16:18:00;;;;;;;14.73;10.27;;;;;;;;;;6283137;22;20463;-74
2022/09/08 16:20:26;;;;;;;13.77;9.98;;;;;;;;;;6299121;22;20030;-75
2022/09/08 16:22:54;;;;;;;13.27;10.45;;;;;;;;;;6298586;22;20059;-75
2022/09/08 16:25:41;;;;;;;14.80;10.95;;;;;;;;;;6271641;22;20059;-75
2022/09/08 16:28:21;;;;;;;16.55;10.52;;;;;;;;;;6299822;22;20019;-75
2022/09/08 16:31:05;;;;;;;13.88;10.60;;;;;;;;;;6298543;22;20073;-75
2022/09/08 16:33:31;;;;;;;13.45;10.98;;;;;;;;;;6298886;22;20122;-75
2022/09/08 16:36:11;;;;;;;14.30;11.32;;;;;;;;;;6298801;22;20333;-75
2022/09/08 16:38:40;;;;;;;14.00;11.85;;;;;;;;;;6298538;22;20023;-74
2022/09/08 16:41:14;;;;;;;13.25;11.88;;;;;;;;;;6299307;22;20019;-74
2022/09/08 16:43:39;;;;;;;;;;;;;;;;;;6299133;22;20084;-75
2022/09/08 16:46:12;;;;;;;14.82;11.68;;;;;;;;;;6298808;22;19914;-74
2022/09/08 16:48:41;;;;;;;12.68;10.93;;;;;;;;;;6271382;22;20027;-75
2022/09/08 16:51:07;;;;;;;16.20;12.68;;;;;;;;;;6298838;22;20359;-74
2022/09/08 16:53:52;;;;;;;15.68;11.88;;;;;;;;;;6298667;22;20069;-75
2022/09/08 16:56:36;;;;;;;13.82;12.00;;;;;;;;;;6298669;22;20027;-75
2022/09/08 16:59:25;;;;;;;17.50;13.45;;;;;;;;;;6272034;22;20514;-74
2022/09/08 17:02:06;;;;;;;16.50;13.63;;;;;;;;;;6298971;22;20474;-75
2022/09/08 17:04:46;;;;;;;18.75;13.77;;;;;;;;;;6298713;22;20019;-74
2022/09/08 17:07:22;;;;;;;16.52;13.93;;;;;;;;;;6272071;22;20046;-75
2022/09/08 17:09:51;;;;;;;17.70;14.13;;;;;;;;;;6271174;22;20395;-75
2022/09/08 17:12:36;;;;;;;17.27;13.80;;;;;;;;;;6299844;22;20030;-74
2022/09/08 17:15:08;;;;;;;16.00;14.30;;;;;;;;;;6298576;22;20205;-74
2022/09/08 17:17:56;;;;;;;19.10;15.38;;;;;;;;;;6298393;22;20054;-74
2022/09/08 17:20:29;;;;;;;17.20;14.90;;;;;;;;;;6299423;22;20415;-74
2022/09/08 17:22:59;;;;;;;22.35;16.48;;;;;;;;;;6298734;22;20027;-75
2022/09/08 17:25:25;;;;;;;19.00;15.88;;;;;;;;;;6300126;22;20050;-74
2022/09/08 17:27:54;;;;;;;22.33;17.00;;;;;;;;;;6301745;22;20026;-74
2022/09/08 17:30:21;;;;;;;22.85;16.13;;;;;;;;;;6304674;22;20347;-74
2022/09/08 17:32:58;;;;;;;22.35;16.65;;;;;;;;;;6312563;22;20070;-74
2022/09/08 17:35:33;;;;;;;21.05;16.92;;;;;;;;;;6310576;22;20072;-74
2022/09/08 17:38:23;;;;;;;24.35;17.35;;;;;;;;;;6315515;22;20074;-74
2022/09/08 17:41:05;;;;;;;24.05;17.17;;;;;;;;;;6275820;22;20050;-74
2022/09/08 17:43:42;;;;;;;21.30;15.98;;;;;;;;;;6301248;22;20023;-75
2022/09/08 17:46:17;;;;;;;23.63;16.83;;;;;;;;;;6302498;22;20023;-74
2022/09/08 17:48:54;;;;;;;22.65;16.30;;;;;;;;;;6273751;22;20352;-75
2022/09/08 17:51:29;;;;;;;22.00;17.85;;;;;;;;;;6301941;22;20027;-74
2022/09/08 17:53:59;;;;;;;27.83;18.92;;;;;;;;;;6274181;22;20034;-75
2022/09/08 17:56:26;;;;;;;24.00;18.20;;;;;;;;;;6273026;22;20101;-75
2022/09/08 17:59:21;;;;;;;27.52;17.50;;;;;;;;;;6273527;22;20125;-76
2022/09/08 18:01:53;;;;;;;20.95;16.90;;;;;;;;;;6274097;22;20078;-75
2022/09/08 18:04:21;;;;;;;26.05;18.63;;;;;;;;;;6300595;22;20015;-75
2022/09/08 18:06:59;;;;;;;23.65;18.42;;;;;;;;;;6300216;22;20023;-74
2022/09/08 18:09:31;;;;;;;25.65;19.15;;;;;;;;;;6272982;22;20019;-75
2022/09/08 18:12:13;;;;;;;24.70;18.58;;;;;;;;;;6273594;22;20057;-75
2022/09/08 18:14:50;;;;;;;26.42;19.05;;;;;;;;;;6300125;22;20094;-74
2022/09/08 18:17:21;;;;;;;30.30;19.33;;;;;;;;;;6273028;22;20024;-75
2022/09/08 18:19:51;;;;;;;23.17;18.65;;;;;;;;;;6299951;22;20456;-74
2022/09/08 18:22:49;;;;;;;24.08;19.20;;;;;;;;;;6272249;22;20479;-76
2022/09/08 18:25:25;;;;;;;27.25;19.50;;;;;;;;;;6207453;22;20054;-75
2022/09/08 18:27:58;;;;;;;25.05;19.42;;;;;;;;;;6300888;22;20023;-75
2022/09/08 18:30:31;;;;;;;22.20;18.42;;;;;;;;;;6299938;22;20034;-74
2022/09/08 18:33:21;;;;;;;24.10;19.63;;;;;;;;;;6300365;22;20538;-74
2022/09/08 18:35:55;;;;;;;28.30;19.65;;;;;;;;;;6299692;22;20486;-75